Time;durP1;ratioP1;P1;durP2;ratioP2;P2;SDS_P1;SDS_P2;PMS_P1;PMS_P2;Temp;Humidity;BMP_temperature;BMP_pressure;BME280_temperature;BME280_humidity;BME280_pressure;Samples;Min_cycle;Max_cycle;Signal;HPM_P1;HPM_P2
2021/03/15 00:00:40;;;;;;;5.57;2.38;;;10.00;74.90;;;;;;5047342;28;20025;-65
2021/03/15 00:03:06;;;;;;;12.77;4.88;;;10.10;74.50;;;;;;5052258;28;20395;-65
2021/03/15 00:05:32;;;;;;;9.88;4.93;;;10.20;74.10;;;;;;5054383;28;20029;-65
2021/03/15 00:07:57;;;;;;;11.00;4.38;;;10.30;74.10;;;;;;5056352;28;20435;-64
2021/03/15 00:10:24;;;;;;;13.07;5.15;;;10.40;73.80;;;;;;5047276;28;20044;-64
2021/03/15 00:12:50;;;;;;;11.40;5.45;;;10.40;73.60;;;;;;5063213;28;20047;-65
2021/03/15 00:15:18;;;;;;;11.93;4.35;;;10.50;73.60;;;;;;5049865;28;20037;-65
2021/03/15 00:17:44;;;;;;;6.82;3.15;;;10.50;73.50;;;;;;5057061;28;20039;-65
2021/03/15 00:20:12;;;;;;;8.20;4.43;;;10.40;73.80;;;;;;5043797;28;20045;-65
2021/03/15 00:22:38;;;;;;;9.68;4.43;;;10.60;73.30;;;;;;5051534;28;20096;-65
2021/03/15 00:25:05;;;;;;;9.05;4.22;;;10.60;73.30;;;;;;5042538;28;20037;-65
2021/03/15 00:27:31;;;;;;;8.50;4.50;;;10.50;73.90;;;;;;5051911;28;20041;-65
2021/03/15 00:29:57;;;;;;;8.93;4.10;;;10.50;73.80;;;;;;5051111;28;20033;-65
2021/03/15 00:32:22;;;;;;;9.38;4.72;;;10.50;74.10;;;;;;5047789;28;20479;-65
2021/03/15 00:34:48;;;;;;;11.13;4.68;;;10.40;74.70;;;;;;5040538;28;20039;-65
2021/03/15 00:37:14;;;;;;;9.82;4.28;;;10.30;75.30;;;;;;5052218;28;20047;-65
2021/03/15 00:39:40;;;;;;;9.98;3.30;;;10.10;75.20;;;;;;5049596;28;20033;-65
2021/03/15 00:42:06;;;;;;;6.28;3.35;;;9.90;75.20;;;;;;5042297;28;20509;-66
2021/03/15 00:44:32;;;;;;;7.97;3.47;;;9.90;75.40;;;;;;5055441;28;20040;-66
2021/03/15 00:46:58;;;;;;;10.73;3.78;;;9.90;75.50;;;;;;5051011;28;20505;-65
2021/03/15 00:49:23;;;;;;;11.90;4.93;;;9.90;75.90;;;;;;5059327;28;20040;-65
2021/03/15 00:51:49;;;;;;;7.47;4.07;;;9.80;76.40;;;;;;5052148;28;20033;-65
2021/03/15 00:54:15;;;;;;;10.05;3.40;;;9.90;76.10;;;;;;5048949;28;22622;-65
2021/03/15 00:56:40;;;;;;;9.02;3.70;;;9.90;76.20;;;;;;5054747;28;20029;-65
2021/03/15 00:59:06;;;;;;;8.75;3.90;;;9.80;76.70;;;;;;5032292;28;20136;-66
2021/03/15 01:01:32;;;;;;;10.27;3.95;;;9.80;76.50;;;;;;5056670;28;20052;-65
2021/03/15 01:03:57;;;;;;;10.07;4.50;;;9.80;76.60;;;;;;5050861;28;20558;-66
2021/03/15 01:06:23;;;;;;;9.00;3.78;;;9.90;76.60;;;;;;5052474;28;20533;-65
2021/03/15 01:08:48;;;;;;;8.45;3.85;;;9.90;76.50;;;;;;5059435;28;20039;-66
2021/03/15 01:11:14;;;;;;;11.88;4.80;;;9.80;77.00;;;;;;5051764;28;20033;-65
2021/03/15 01:13:40;;;;;;;8.55;3.92;;;9.80;77.20;;;;;;5062748;28;20033;-66
2021/03/15 01:16:06;;;;;;;8.23;3.88;;;9.90;76.90;;;;;;5050465;28;20039;-66
2021/03/15 01:18:32;;;;;;;7.53;4.40;;;9.90;77.00;;;;;;5072902;28;20441;-65
2021/03/15 01:20:58;;;;;;;8.07;3.53;;;9.90;76.90;;;;;;5047861;28;20482;-65
2021/03/15 01:23:23;;;;;;;7.80;3.30;;;9.90;77.30;;;;;;5049346;28;20029;-65
2021/03/15 01:25:49;;;;;;;11.30;4.15;;;10.00;76.80;;;;;;5050312;28;20033;-64
2021/03/15 01:28:17;;;;;;;8.73;3.85;;;10.00;76.80;;;;;;5063214;28;20048;-64
2021/03/15 01:30:45;;;;;;;7.65;3.42;;;9.90;77.20;;;;;;5046301;28;20072;-65
2021/03/15 01:33:11;;;;;;;7.55;4.07;;;10.10;76.70;;;;;;5055481;28;20101;-65
2021/03/15 01:35:37;;;;;;;11.15;4.03;;;10.00;76.60;;;;;;5055696;28;20475;-65
2021/03/15 01:38:05;;;;;;;10.38;4.22;;;9.90;76.70;;;;;;5048896;28;20069;-65
2021/03/15 01:40:33;;;;;;;7.45;3.55;;;9.90;76.80;;;;;;5051635;28;20025;-65
2021/03/15 01:42:59;;;;;;;9.65;5.20;;;9.80;77.20;;;;;;5049484;28;20029;-66
2021/03/15 01:45:24;;;;;;;9.65;3.58;;;10.00;76.60;;;;;;5052652;28;20078;-65
2021/03/15 01:47:51;;;;;;;7.90;3.45;;;9.90;77.00;;;;;;5051211;28;20032;-66
2021/03/15 01:50:18;;;;;;;7.50;3.80;;;9.90;76.50;;;;;;5049356;28;20037;-65
2021/03/15 01:52:44;;;;;;;8.70;3.20;;;9.90;76.60;;;;;;5046584;28;20029;-65
2021/03/15 01:55:11;;;;;;;9.10;3.67;;;9.90;77.00;;;;;;5048346;28;20109;-66
2021/03/15 01:57:37;;;;;;;6.30;3.20;;;10.00;76.60;;;;;;5049975;28;20052;-65
2021/03/15 02:00:07;;;;;;;6.55;3.63;;;9.90;76.70;;;;;;5054854;28;20024;-66
2021/03/15 02:02:35;;;;;;;8.77;4.80;;;9.90;76.80;;;;;;5054100;28;20032;-66
2021/03/15 02:05:01;;;;;;;6.00;3.45;;;9.90;76.80;;;;;;5055207;28;20036;-66
2021/03/15 02:07:27;;;;;;;9.27;4.07;;;9.90;77.30;;;;;;5053480;28;20056;-65
2021/03/15 02:09:53;;;;;;;7.70;3.50;;;9.90;77.30;;;;;;5053573;28;20029;-66
2021/03/15 02:12:46;;;;;;;9.73;3.70;;;9.90;77.00;;;;;;5054745;28;20033;-66
2021/03/15 02:15:21;;;;;;;7.57;3.83;;;9.80;77.50;;;;;;5042657;28;20115;-66
2021/03/15 02:17:56;;;;;;;10.38;4.88;;;9.80;77.80;;;;;;5061687;28;20029;-65
2021/03/15 02:20:40;;;;;;;8.75;4.57;;;9.80;77.80;;;;;;5043765;28;20037;-65
2021/03/15 02:23:36;;;;;;;7.40;3.28;;;9.70;78.40;;;;;;5054665;28;20214;-65
2021/03/15 02:26:36;;;;;;;8.40;3.92;;;9.90;77.30;;;;;;5045472;28;20022;-65
2021/03/15 02:29:30;;;;;;;6.32;3.53;;;9.90;76.80;;;;;;5050774;28;20037;-65
2021/03/15 02:32:01;;;;;;;8.05;4.30;;;10.00;76.80;;;;;;5062126;28;20320;-65
2021/03/15 02:35:06;;;;;;;6.78;3.60;;;9.90;77.30;;;;;;5038958;28;20641;-65
2021/03/15 02:37:41;;;;;;;7.22;3.05;;;9.90;77.40;;;;;;5048504;28;20045;-65
2021/03/15 02:40:12;;;;;;;12.77;3.60;;;9.80;77.50;;;;;;5055765;28;20032;-64
2021/03/15 02:42:45;;;;;;;5.45;2.60;;;9.60;77.90;;;;;;5061501;28;20025;-64
2021/03/15 02:45:13;;;;;;;6.28;2.78;;;9.50;78.20;;;;;;5048626;28;20128;-64
2021/03/15 02:47:41;;;;;;;6.72;2.70;;;9.40;78.30;;;;;;5060579;28;20088;-65
2021/03/15 02:50:10;;;;;;;6.07;2.55;;;9.40;78.70;;;;;;5044422;28;20549;-65
2021/03/15 02:52:44;;;;;;;5.70;2.80;;;9.40;78.70;;;;;;5051180;28;20039;-65
2021/03/15 02:55:12;;;;;;;6.38;3.22;;;9.40;78.80;;;;;;5048519;28;20075;-65
2021/03/15 02:57:41;;;;;;;6.45;2.53;;;9.40;78.80;;;;;;5062478;28;20048;-65
2021/03/15 03:00:07;;;;;;;5.40;2.20;;;9.40;78.30;;;;;;5053572;28;20056;-65
2021/03/15 03:02:36;;;;;;;8.45;3.00;;;9.30;78.80;;;;;;5054693;28;20025;-65
2021/03/15 03:05:06;;;;;;;5.65;2.42;;;9.60;78.00;;;;;;5048713;28;20450;-65
2021/03/15 03:07:33;;;;;;;4.95;2.50;;;9.40;78.40;;;;;;5057138;28;20082;-65
2021/03/15 03:10:00;;;;;;;6.53;2.65;;;9.60;78.20;;;;;;5054890;28;20025;-65
2021/03/15 03:12:26;;;;;;;5.13;2.05;;;9.70;77.20;;;;;;5057724;28;20592;-65
2021/03/15 03:14:53;;;;;;;5.57;2.38;;;9.60;77.70;;;;;;5038628;28;20033;-65
2021/03/15 03:17:21;;;;;;;5.50;2.28;;;9.60;77.20;;;;;;5036647;28;20155;-65
2021/03/15 03:19:49;;;;;;;4.80;2.22;;;9.50;77.70;;;;;;5065922;28;20044;-65
2021/03/15 03:22:18;;;;;;;4.90;1.83;;;9.70;77.20;;;;;;5042855;28;20033;-65
2021/03/15 03:24:45;;;;;;;3.70;1.88;;;9.70;77.00;;;;;;5048435;28;20094;-65
2021/03/15 03:27:13;;;;;;;5.18;2.35;;;9.80;76.90;;;;;;5047984;28;20095;-64
2021/03/15 03:29:39;;;;;;;6.13;2.90;;;9.70;77.40;;;;;;5045579;28;20078;-65
2021/03/15 03:32:07;;;;;;;7.25;2.65;;;9.70;77.00;;;;;;5048065;28;20039;-65
2021/03/15 03:34:32;;;;;;;6.82;3.13;;;9.60;77.50;;;;;;5040859;28;20479;-65
2021/03/15 03:36:58;;;;;;;7.32;3.03;;;9.60;77.50;;;;;;5067586;28;20035;-65
2021/03/15 03:39:23;;;;;;;6.93;2.90;;;9.60;77.70;;;;;;5048271;28;20037;-64
2021/03/15 03:41:49;;;;;;;6.60;3.03;;;9.60;77.80;;;;;;5045737;28;20037;-65
2021/03/15 03:44:15;;;;;;;7.97;2.72;;;9.60;77.80;;;;;;5048706;28;20043;-65
2021/03/15 03:46:42;;;;;;;6.97;3.03;;;9.60;78.00;;;;;;5043395;28;20115;-65
2021/03/15 03:49:09;;;;;;;7.45;3.28;;;9.60;78.00;;;;;;5042332;28;20226;-65
2021/03/15 03:51:52;;;;;;;9.40;4.63;;;9.60;77.90;;;;;;5045545;28;20099;-65
2021/03/15 03:54:24;;;;;;;12.02;4.63;;;9.60;78.00;;;;;;5052760;28;20029;-65
2021/03/15 03:57:09;;;;;;;11.43;5.00;;;9.60;78.20;;;;;;5050143;28;20059;-65
2021/03/15 03:59:41;;;;;;;10.13;4.50;;;9.60;78.70;;;;;;5046943;28;20103;-65
2021/03/15 04:02:09;;;;;;;15.10;6.32;;;9.50;79.00;;;;;;5056623;28;20025;-65
2021/03/15 04:04:40;;;;;;;11.98;4.97;;;9.40;79.20;;;;;;5049561;28;20024;-65
2021/03/15 04:07:07;;;;;;;12.85;5.50;;;9.40;79.60;;;;;;5050894;28;20032;-65
2021/03/15 04:09:35;;;;;;;15.35;6.32;;;9.40;79.80;;;;;;5048847;28;20031;-65
2021/03/15 04:12:10;;;;;;;11.15;6.90;;;9.40;79.90;;;;;;5043354;28;20033;-65
2021/03/15 04:14:45;;;;;;;11.77;5.50;;;9.40;79.80;;;;;;5053255;28;20108;-65
2021/03/15 04:17:15;;;;;;;14.25;6.60;;;9.50;79.90;;;;;;5036171;28;20029;-65
2021/03/15 04:20:04;;;;;;;11.45;5.72;;;9.40;79.80;;;;;;5046962;28;20390;-64
2021/03/15 04:22:33;;;;;;;12.50;6.13;;;9.40;79.80;;;;;;5042433;28;20025;-65
2021/03/15 04:25:01;;;;;;;9.63;5.45;;;9.40;80.00;;;;;;5043728;28;20056;-64
2021/03/15 04:27:30;;;;;;;12.93;6.53;;;9.40;79.90;;;;;;5046830;28;20056;-64
2021/03/15 04:29:56;;;;;;;14.65;6.28;;;9.40;80.00;;;;;;5044052;28;20451;-65
2021/03/15 04:32:24;;;;;;;13.00;5.82;;;9.40;80.00;;;;;;5046463;28;20025;-65
2021/03/15 04:34:51;;;;;;;11.80;6.00;;;9.40;79.80;;;;;;5046664;28;20021;-65
2021/03/15 04:37:18;;;;;;;11.70;6.00;;;9.60;80.00;;;;;;5047538;28;20113;-65
2021/03/15 04:39:46;;;;;;;13.57;6.38;;;9.50;79.90;;;;;;5040705;28;20565;-65
2021/03/15 04:42:12;;;;;;;18.58;6.30;;;9.40;79.90;;;;;;5046438;28;20083;-65
2021/03/15 04:44:38;;;;;;;15.65;6.00;;;9.40;79.90;;;;;;5047476;28;20033;-65
2021/03/15 04:47:04;;;;;;;10.35;5.80;;;9.50;79.80;;;;;;5057595;28;20123;-65
2021/03/15 04:49:32;;;;;;;11.90;5.75;;;9.50;79.70;;;;;;5052852;28;20036;-65
2021/03/15 04:52:01;;;;;;;12.45;6.47;;;9.60;79.60;;;;;;5036787;28;20029;-65
2021/03/15 04:54:27;;;;;;;15.27;7.00;;;9.60;79.40;;;;;;5059454;28;20033;-65
2021/03/15 04:56:54;;;;;;;14.02;7.25;;;9.60;79.30;;;;;;5045095;28;20018;-65
2021/03/15 04:59:21;;;;;;;18.20;6.03;;;9.60;79.10;;;;;;5065718;28;20079;-66
2021/03/15 05:01:48;;;;;;;12.55;5.97;;;9.60;78.90;;;;;;5049637;28;20033;-65
2021/03/15 05:04:16;;;;;;;15.40;5.55;;;9.50;78.90;;;;;;5049090;28;20037;-65
2021/03/15 05:06:43;;;;;;;13.00;6.13;;;9.40;79.00;;;;;;5051947;28;20115;-65
2021/03/15 05:09:10;;;;;;;13.15;5.22;;;9.40;78.90;;;;;;5049756;28;20056;-64
2021/03/15 05:11:38;;;;;;;16.42;5.80;;;9.40;78.90;;;;;;5053169;28;20052;-64
2021/03/15 05:14:05;;;;;;;11.38;5.07;;;9.50;78.80;;;;;;5050533;28;20033;-64
2021/03/15 05:16:36;;;;;;;13.02;4.93;;;9.40;78.70;;;;;;5056845;28;20486;-65
2021/03/15 05:19:04;;;;;;;11.13;5.25;;;9.50;78.50;;;;;;5051002;28;20045;-65
2021/03/15 05:21:32;;;;;;;11.57;5.15;;;9.40;78.60;;;;;;5067387;28;20039;-65
2021/03/15 05:23:58;;;;;;;12.32;5.25;;;9.50;78.60;;;;;;5047277;28;20104;-65
2021/03/15 05:26:25;;;;;;;10.90;4.47;;;9.50;78.60;;;;;;5050607;28;20082;-65
2021/03/15 05:28:52;;;;;;;14.23;5.53;;;9.50;78.40;;;;;;5067934;28;20388;-65
2021/03/15 05:31:19;;;;;;;13.05;5.75;;;9.50;78.30;;;;;;5048629;28;20037;-65
2021/03/15 05:33:46;;;;;;;11.13;5.25;;;9.60;78.20;;;;;;5061120;28;20108;-65
2021/03/15 05:36:14;;;;;;;10.82;6.20;;;9.60;78.10;;;;;;5050523;28;20475;-64
2021/03/15 05:38:40;;;;;;;14.02;5.07;;;9.60;78.10;;;;;;5046917;28;20094;-65
2021/03/15 05:41:11;;;;;;;15.63;6.22;;;9.60;78.10;;;;;;5047220;28;20037;-64
2021/03/15 05:44:12;;;;;;;11.07;5.30;;;9.60;78.10;;;;;;5050412;28;20033;-64
2021/03/15 05:47:05;;;;;;;12.63;5.03;;;9.60;78.10;;;;;;5049130;28;20028;-65
2021/03/15 05:49:54;;;;;;;11.23;5.57;;;9.60;78.20;;;;;;5044949;28;20037;-65
2021/03/15 05:52:42;;;;;;;14.70;5.60;;;9.50;78.20;;;;;;5041558;28;20087;-65
2021/03/15 05:55:52;;;;;;;14.02;5.32;;;9.50;78.10;;;;;;5046219;28;20514;-66
2021/03/15 05:58:26;;;;;;;11.43;4.70;;;9.50;78.00;;;;;;5035777;28;20107;-65
2021/03/15 06:01:14;;;;;;;15.20;6.03;;;9.60;77.90;;;;;;5049869;28;20039;-65
2021/03/15 06:04:04;;;;;;;14.27;5.65;;;9.60;77.80;;;;;;5049870;28;20029;-65
2021/03/15 06:06:38;;;;;;;10.15;4.55;;;9.60;77.70;;;;;;5047484;28;21596;-65
2021/03/15 06:09:05;;;;;;;19.85;6.25;;;9.50;77.60;;;;;;5040722;28;20037;-65
2021/03/15 06:11:44;;;;;;;13.60;5.53;;;9.50;77.80;;;;;;5051702;28;20025;-65
2021/03/15 06:14:13;;;;;;;10.25;4.45;;;9.50;78.00;;;;;;5060195;28;20479;-64
2021/03/15 06:16:40;;;;;;;13.77;5.30;;;9.50;78.00;;;;;;5064821;28;20044;-65
2021/03/15 06:19:07;;;;;;;13.43;5.18;;;10.50;78.50;;;;;;5048019;28;20068;-65
2021/03/15 06:21:33;;;;;;;11.98;5.07;;;9.50;78.00;;;;;;5047453;28;20082;-66
2021/03/15 06:23:59;;;;;;;11.35;4.85;;;9.50;78.00;;;;;;5044418;28;20033;-65
2021/03/15 06:26:27;;;;;;;14.98;5.28;;;9.50;77.80;;;;;;5034028;28;20037;-65
2021/03/15 06:28:55;;;;;;;10.27;4.30;;;9.50;77.80;;;;;;5050475;28;20118;-65
2021/03/15 06:31:21;;;;;;;10.27;5.45;;;9.50;77.90;;;;;;5047909;28;20037;-65
2021/03/15 06:33:48;;;;;;;11.20;4.47;;;9.50;78.00;;;;;;5058126;28;20032;-64
2021/03/15 06:36:14;;;;;;;12.48;5.45;;;9.50;78.00;;;;;;5051108;28;20112;-65
2021/03/15 06:38:42;;;;;;;14.20;6.13;;;9.50;78.00;;;;;;5065355;28;20101;-65
2021/03/15 06:41:09;;;;;;;13.52;5.40;;;9.60;78.10;;;;;;5038611;28;20041;-65
2021/03/15 06:43:35;;;;;;;11.93;5.18;;;9.60;78.10;;;;;;5050496;28;20390;-65
2021/03/15 06:46:01;;;;;;;18.83;5.50;;;9.60;77.90;;;;;;5071501;28;20112;-65
2021/03/15 06:48:27;;;;;;;10.10;5.80;;;9.70;77.80;;;;;;5058522;28;20036;-65
2021/03/15 06:50:54;;;;;;;10.88;4.70;;;9.70;77.60;;;;;;5048985;28;20446;-65
2021/03/15 06:53:20;;;;;;;16.02;6.10;;;9.70;77.80;;;;;;5063991;28;20025;-64
2021/03/15 06:55:50;;;;;;;16.20;5.80;;;9.70;77.90;;;;;;5049486;28;20142;-65
2021/03/15 06:58:26;;;;;;;12.10;5.10;;;9.70;77.90;;;;;;5052185;28;20079;-65
2021/03/15 07:01:19;;;;;;;13.82;4.85;;;9.70;77.70;;;;;;5044101;28;20017;-66
2021/03/15 07:03:47;;;;;;;12.93;5.28;;;9.70;77.70;;;;;;5049128;28;20781;-65
2021/03/15 07:06:15;;;;;;;10.95;4.20;;;9.70;77.70;;;;;;5047505;28;20040;-66
2021/03/15 07:08:42;;;;;;;12.95;5.82;;;9.70;77.50;;;;;;5052547;28;20024;-66
2021/03/15 07:11:24;;;;;;;14.90;5.65;;;9.70;77.70;;;;;;5051716;28;20021;-66
2021/03/15 07:13:51;;;;;;;9.43;4.57;;;9.70;77.80;;;;;;5031475;28;20025;-66
2021/03/15 07:16:25;;;;;;;21.05;6.53;;;9.70;77.90;;;;;;5045763;28;20052;-66
2021/03/15 07:18:51;;;;;;;11.27;4.00;;;9.80;78.10;;;;;;5052525;28;20029;-66
2021/03/15 07:21:29;;;;;;;17.85;5.32;;;9.90;77.80;;;;;;5049640;28;20040;-66
2021/03/15 07:23:58;;;;;;;11.60;3.90;;;9.90;77.50;;;;;;5048143;28;20028;-66
2021/03/15 07:26:26;;;;;;;12.98;5.50;;;10.00;77.10;;;;;;5052738;28;20036;-66
2021/03/15 07:28:52;;;;;;;23.77;5.95;;;10.00;77.10;;;;;;5043617;28;20037;-65
2021/03/15 07:31:25;;;;;;;14.88;5.40;;;9.90;76.90;;;;;;5062853;28;20032;-65
2021/03/15 07:33:56;;;;;;;18.85;4.50;;;9.90;76.90;;;;;;5044708;28;20419;-65
2021/03/15 07:36:22;;;;;;;15.15;3.55;;;9.90;76.90;;;;;;5047152;28;20459;-65
2021/03/15 07:38:48;;;;;;;12.95;4.05;;;9.90;76.80;;;;;;5063027;28;20067;-65
2021/03/15 07:41:16;;;;;;;10.43;4.18;;;9.90;77.00;;;;;;5047443;28;20037;-66
2021/03/15 07:43:42;;;;;;;16.70;3.92;;;10.00;76.80;;;;;;5038777;28;20056;-66
2021/03/15 07:46:24;;;;;;;15.90;4.03;;;10.10;76.70;;;;;;5045717;28;20412;-66
2021/03/15 07:48:50;;;;;;;14.15;3.53;;;10.30;76.10;;;;;;5071376;28;20030;-65
2021/03/15 07:51:34;;;;;;;14.10;3.65;;;10.50;74.70;;;;;;5037362;28;20039;-65
2021/03/15 07:54:07;;;;;;;17.45;2.95;;;11.10;74.20;;;;;;5048471;28;20021;-65
2021/03/15 07:56:34;;;;;;;23.45;5.18;;;12.40;71.00;;;;;;5049414;28;20025;-65
2021/03/15 07:58:59;;;;;;;13.15;3.53;;;12.80;67.10;;;;;;5046773;28;20053;-65
2021/03/15 08:01:26;;;;;;;11.43;2.90;;;12.90;67.60;;;;;;5058128;28;20127;-74
2021/03/15 08:03:52;;;;;;;12.98;2.72;;;13.40;64.80;;;;;;5035898;28;20841;-68
2021/03/15 08:06:20;;;;;;;14.85;4.10;;;14.20;62.00;;;;;;5059628;28;20051;-69
2021/03/15 08:08:47;;;;;;;11.85;3.15;;;14.30;62.80;;;;;;5042548;28;20128;-67
2021/03/15 08:11:14;;;;;;;15.85;3.17;;;14.70;59.30;;;;;;5043900;28;20048;-68
2021/03/15 08:13:49;;;;;;;9.95;2.65;;;15.00;57.80;;;;;;5059521;28;20033;-68
2021/03/15 08:16:20;;;;;;;13.57;3.85;;;14.90;58.50;;;;;;5061224;28;20029;-68
2021/03/15 08:18:51;;;;;;;9.32;2.55;;;14.50;58.30;;;;;;5030944;28;20037;-68
2021/03/15 08:21:27;;;;;;;11.07;2.55;;;14.30;60.60;;;;;;5042678;28;20483;-69
2021/03/15 08:23:55;;;;;;;13.68;2.92;;;14.50;61.10;;;;;;5044110;28;20047;-68
2021/03/15 08:26:23;;;;;;;7.97;2.72;;;16.00;58.00;;;;;;5034567;28;20091;-69
2021/03/15 08:28:52;;;;;;;11.48;2.95;;;17.40;54.00;;;;;;5037800;28;20444;-68
2021/03/15 08:31:22;;;;;;;10.05;2.15;;;18.10;49.30;;;;;;5043001;28;20025;-68
2021/03/15 08:33:50;;;;;;;10.27;2.00;;;18.50;48.90;;;;;;5043091;28;20032;-68
2021/03/15 08:36:17;;;;;;;7.25;2.22;;;19.30;45.70;;;;;;5046796;28;20523;-68
2021/03/15 08:38:44;;;;;;;13.35;3.17;;;19.80;44.90;;;;;;5050184;28;20032;-69
2021/03/15 08:41:23;;;;;;;8.57;2.33;;;20.30;44.20;;;;;;5043732;28;20509;-69
2021/03/15 08:43:50;;;;;;;7.03;2.05;;;20.30;41.80;;;;;;5062298;28;20040;-71
2021/03/15 08:46:38;;;;;;;8.27;2.38;;;19.80;42.00;;;;;;5046191;28;20494;-67
2021/03/15 08:49:07;;;;;;;15.27;3.15;;;19.10;42.60;;;;;;5049809;28;20608;-67
2021/03/15 08:51:33;;;;;;;14.48;2.50;;;17.70;46.00;;;;;;5054836;28;20037;-66
2021/03/15 08:54:00;;;;;;;11.23;2.70;;;16.30;48.00;;;;;;5052282;28;20033;-67
2021/03/15 08:56:29;;;;;;;9.32;1.98;;;16.50;49.50;;;;;;5061612;28;20044;-67
2021/03/15 08:58:59;;;;;;;9.43;1.90;;;16.70;49.70;;;;;;5048391;28;20083;-67
2021/03/15 09:01:27;;;;;;;11.25;2.15;;;18.40;45.10;;;;;;5048645;28;20553;-66
2021/03/15 09:03:53;;;;;;;8.30;2.53;;;19.20;41.50;;;;;;5048286;28;20115;-66
2021/03/15 09:06:37;;;;;;;10.73;2.35;;;18.30;41.80;;;;;;5042669;28;20049;-66
2021/03/15 09:09:11;;;;;;;8.60;2.00;;;18.40;43.00;;;;;;5044207;28;20035;-66
2021/03/15 09:11:37;;;;;;;10.05;2.50;;;17.90;42.10;;;;;;5050561;28;20098;-66
2021/03/15 09:14:15;;;;;;;9.45;2.63;;;17.10;44.60;;;;;;5045128;28;20036;-65
2021/03/15 09:16:48;;;;;;;5.93;1.95;;;17.50;45.00;;;;;;5041355;28;20059;-67
2021/03/15 09:19:25;;;;;;;6.00;1.83;;;17.50;43.60;;;;;;5047365;28;20134;-67
2021/03/15 09:22:01;;;;;;;8.50;2.45;;;16.90;44.70;;;;;;5047460;28;20075;-70
2021/03/15 09:24:39;;;;;;;9.95;2.25;;;16.10;46.40;;;;;;5047089;28;20029;-71
2021/03/15 09:27:07;;;;;;;9.88;1.90;;;15.20;48.40;;;;;;5047177;28;20029;-72
2021/03/15 09:29:36;;;;;;;8.85;2.20;;;14.50;50.20;;;;;;5060049;28;20280;-71
2021/03/15 09:32:05;;;;;;;7.53;2.35;;;14.40;51.00;;;;;;5059995;28;21382;-69
2021/03/15 09:34:32;;;;;;;9.48;2.08;;;14.30;50.90;;;;;;5049696;28;20068;-71
2021/03/15 09:36:59;;;;;;;7.85;1.52;;;14.40;50.80;;;;;;5044066;28;20023;-66
2021/03/15 09:39:27;;;;;;;7.45;2.55;;;14.60;50.00;;;;;;5043580;28;20186;-69
2021/03/15 09:42:00;;;;;;;8.30;2.50;;;14.80;49.40;;;;;;5046375;28;20045;-68
2021/03/15 09:44:29;;;;;;;8.68;1.80;;;15.00;49.50;;;;;;5062178;28;20072;-69
2021/03/15 09:46:55;;;;;;;8.23;2.25;;;15.30;48.70;;;;;;5037184;28;20649;-69
2021/03/15 09:49:40;;;;;;;15.90;3.15;;;15.20;48.70;;;;;;5056921;28;20046;-69
2021/03/15 09:52:09;;;;;;;5.07;1.58;;;14.70;49.30;;;;;;5045073;28;20082;-68
2021/03/15 09:54:42;;;;;;;10.32;1.75;;;14.20;51.20;;;;;;5040833;28;20029;-69
2021/03/15 09:57:08;;;;;;;;;;;14.00;52.20;;;;;;5040327;28;20131;-68
2021/03/15 09:59:34;;;;;;;7.40;1.73;;;13.70;53.10;;;;;;5064323;28;20036;-68
2021/03/15 10:02:00;;;;;;;8.55;1.70;;;13.20;53.90;;;;;;5061324;28;20036;-68
2021/03/15 10:04:39;;;;;;;6.55;1.80;;;13.20;54.60;;;;;;5049250;28;20035;-68
2021/03/15 10:07:10;;;;;;;8.95;2.30;;;13.00;55.10;;;;;;5043747;28;20056;-68
2021/03/15 10:09:39;;;;;;;8.80;2.28;;;13.30;55.50;;;;;;5041112;28;20095;-68
2021/03/15 10:12:19;;;;;;;9.57;2.03;;;13.50;54.50;;;;;;5046727;28;20031;-68
2021/03/15 10:14:45;;;;;;;8.32;1.58;;;14.10;53.40;;;;;;5042117;28;20033;-72
2021/03/15 10:17:20;;;;;;;8.98;1.90;;;14.70;51.80;;;;;;5036913;28;20502;-71
2021/03/15 10:19:46;;;;;;;7.30;1.83;;;14.80;50.80;;;;;;5044079;28;20056;-73
2021/03/15 10:22:14;;;;;;;7.53;2.10;;;15.10;51.10;;;;;;5044869;28;20148;-69
2021/03/15 10:24:41;;;;;;;9.50;1.92;;;15.10;51.60;;;;;;5045458;28;20190;-69
2021/03/15 10:27:08;;;;;;;12.25;2.65;;;15.80;49.50;;;;;;5056179;28;20036;-69
2021/03/15 10:29:35;;;;;;;9.23;2.22;;;16.10;48.60;;;;;;5047827;28;20033;-66
2021/03/15 10:32:06;;;;;;;7.25;1.80;;;16.40;47.40;;;;;;5046972;28;20021;-67
2021/03/15 10:34:32;;;;;;;8.88;2.28;;;16.60;46.70;;;;;;5050351;28;20025;-66
2021/03/15 10:36:58;;;;;;;8.30;2.40;;;16.10;47.80;;;;;;5058663;28;20052;-67
2021/03/15 10:39:25;;;;;;;9.20;2.08;;;15.40;48.70;;;;;;5057759;28;20048;-67
2021/03/15 10:41:52;;;;;;;11.63;2.92;;;15.20;49.70;;;;;;5045254;28;20105;-68
2021/03/15 10:44:25;;;;;;;8.18;1.92;;;15.00;50.70;;;;;;5048167;28;20029;-69
2021/03/15 10:46:55;;;;;;;6.93;2.03;;;14.20;51.90;;;;;;5039638;28;20080;-70
2021/03/15 10:49:22;;;;;;;7.88;1.55;;;13.80;53.70;;;;;;5038663;28;20025;-69
2021/03/15 10:51:51;;;;;;;20.80;2.08;;;13.70;54.10;;;;;;5041417;28;20129;-68
2021/03/15 10:54:31;;;;;;;13.30;2.45;;;13.30;55.20;;;;;;5042436;28;20037;-68
2021/03/15 10:57:20;;;;;;;9.18;1.98;;;13.20;56.80;;;;;;5040888;28;20675;-72
2021/03/15 10:59:47;;;;;;;10.85;2.22;;;13.90;56.00;;;;;;5039961;28;20135;-67
2021/03/15 11:02:24;;;;;;;8.45;2.47;;;14.70;55.00;;;;;;5055873;28;20037;-67
2021/03/15 11:04:59;;;;;;;8.27;2.42;;;15.40;51.70;;;;;;5047007;28;20017;-66
2021/03/15 11:07:30;;;;;;;9.38;1.95;;;15.40;52.00;;;;;;5039233;28;20119;-66
2021/03/15 11:10:01;;;;;;;7.53;1.85;;;15.60;51.30;;;;;;5048537;28;20090;-66
2021/03/15 11:12:40;;;;;;;7.55;2.13;;;15.50;51.50;;;;;;5061722;28;20517;-67
2021/03/15 11:15:18;;;;;;;9.30;2.42;;;15.10;50.90;;;;;;5045164;28;20036;-67
2021/03/15 11:18:07;;;;;;;8.77;2.60;;;15.00;51.60;;;;;;5038471;28;20377;-67
2021/03/15 11:20:54;;;;;;;10.23;3.00;;;14.80;52.60;;;;;;5043396;28;20021;-67
2021/03/15 11:23:35;;;;;;;8.57;2.00;;;14.50;52.20;;;;;;5039493;28;20693;-67
2021/03/15 11:26:10;;;;;;;8.02;1.83;;;14.00;53.00;;;;;;5046945;28;20135;-67
2021/03/15 11:28:44;;;;;;;9.35;2.13;;;13.50;55.10;;;;;;5044355;28;20055;-67
2021/03/15 11:31:19;;;;;;;5.15;1.58;;;13.20;57.20;;;;;;5042771;28;20071;-66
2021/03/15 11:33:55;;;;;;;6.40;1.73;;;12.70;59.60;;;;;;5046624;28;20443;-67
2021/03/15 11:36:23;;;;;;;11.40;2.45;;;11.90;63.30;;;;;;5060664;28;20499;-67
2021/03/15 11:38:55;;;;;;;11.60;3.15;;;11.60;66.30;;;;;;5038869;28;20040;-70
2021/03/15 11:41:22;;;;;;;7.25;1.80;;;11.40;68.20;;;;;;5046137;28;20052;-67
2021/03/15 11:43:48;;;;;;;10.13;2.50;;;11.40;68.80;;;;;;5042953;28;20509;-67
2021/03/15 11:46:14;;;;;;;8.88;1.70;;;11.40;68.70;;;;;;5041462;28;20017;-67
2021/03/15 11:48:40;;;;;;;8.45;2.42;;;11.80;70.20;;;;;;5043070;28;20364;-66
2021/03/15 11:51:06;;;;;;;10.40;2.65;;;12.20;68.60;;;;;;5043779;28;20043;-63
2021/03/15 11:53:33;;;;;;;8.82;2.25;;;12.30;67.60;;;;;;5044162;28;20033;-67
2021/03/15 11:55:59;;;;;;;15.63;3.65;;;12.40;68.10;;;;;;5045363;28;20028;-66
2021/03/15 11:58:25;;;;;;;9.98;1.95;;;12.40;68.80;;;;;;5044772;28;20053;-67
2021/03/15 12:00:50;;;;;;;9.75;2.50;;;12.30;68.90;;;;;;5036809;28;20041;-71
2021/03/15 12:03:16;;;;;;;9.20;2.05;;;12.20;68.60;;;;;;5016025;28;20043;-71
2021/03/15 12:05:42;;;;;;;7.72;2.10;;;12.20;69.30;;;;;;5040855;28;20034;-70
2021/03/15 12:08:07;;;;;;;15.07;2.15;;;12.20;69.70;;;;;;5030789;28;20848;-70
2021/03/15 12:10:33;;;;;;;12.25;2.15;;;12.20;69.40;;;;;;5039718;28;20086;-71
2021/03/15 12:12:59;;;;;;;13.15;2.20;;;12.10;69.90;;;;;;5057834;28;20033;-70
2021/03/15 12:15:26;;;;;;;18.60;4.13;;;12.00;67.80;;;;;;5057912;28;20044;-70
2021/03/15 12:17:51;;;;;;;12.52;3.10;;;12.00;67.80;;;;;;5054692;28;20060;-67
2021/03/15 12:20:17;;;;;;;12.98;2.28;;;12.00;68.00;;;;;;5038129;28;20065;-66
2021/03/15 12:22:43;;;;;;;9.13;2.17;;;12.00;68.20;;;;;;5060674;28;20064;-67
2021/03/15 12:25:10;;;;;;;8.23;2.10;;;11.90;66.50;;;;;;5061223;28;20028;-68
2021/03/15 12:27:36;;;;;;;12.38;2.00;;;11.80;66.60;;;;;;5042855;28;20048;-68
2021/03/15 12:30:02;;;;;;;14.20;3.33;;;11.70;67.20;;;;;;5041601;28;20037;-71
2021/03/15 12:32:28;;;;;;;12.73;2.33;;;11.60;68.80;;;;;;5039857;28;20047;-70
2021/03/15 12:34:53;;;;;;;11.05;2.90;;;11.70;69.10;;;;;;5060831;28;20479;-65
2021/03/15 12:37:19;;;;;;;17.38;2.83;;;12.00;69.40;;;;;;5036538;28;20140;-66
2021/03/15 12:39:47;;;;;;;9.90;2.42;;;12.00;69.80;;;;;;5041828;28;21943;-68
2021/03/15 12:42:14;;;;;;;7.40;2.20;;;12.20;69.10;;;;;;5046081;28;20040;-66
2021/03/15 12:44:40;;;;;;;9.30;2.53;;;12.80;64.80;;;;;;5061201;28;20466;-67
2021/03/15 12:47:05;;;;;;;9.68;2.40;;;12.70;65.20;;;;;;5045681;28;20040;-66
2021/03/15 12:49:31;;;;;;;10.35;3.28;;;12.60;65.00;;;;;;5040565;28;20052;-66
2021/03/15 12:51:57;;;;;;;10.48;2.17;;;12.40;65.30;;;;;;5034795;28;20043;-71
2021/03/15 12:54:22;;;;;;;11.85;1.85;;;11.90;67.10;;;;;;5055032;28;21468;-67
2021/03/15 12:56:48;;;;;;;9.35;2.03;;;11.70;68.90;;;;;;5055507;28;20383;-67
2021/03/15 12:59:14;;;;;;;11.10;2.75;;;11.60;70.00;;;;;;5043145;28;20680;-70
2021/03/15 13:01:40;;;;;;;12.30;2.20;;;11.50;70.00;;;;;;5037284;28;20037;-70